HIDDEN DAM (HENSLEY) (HID)

Elevation: 561' · FRESNO R basin · Operator: US Army Corps of Engineers

Provisional data, subject to change.
Query executed Friday at 23:36:24   clock

Select a sensor type for a plot of data.
Note: Reservoir Flows are daily averages.

Earlier

Date RES ELE    STORAGE    RES CHG    TOC STO    ABV TOC    OUTFLOW    INFLOW    PPT INC    TEMP MN    TEMP MX    WINDLEN    EVP PAN   
 FEET   AF   AF   AF   AF   CFS   CFS   INCHES   DEG F   DEG F   MILES   INCHES  
07/27/2016 488.52 27275 -317 90000 -62725 152 4 0.00 24 43 129 0.40
07/28/2016 488.18 26986 -289 90000 -63014 143 7 0.02 23 42 106 0.37
07/29/2016 487.84 26698 -288 90000 -63302 136 1 0.01 25 43 120 0.39
07/30/2016 487.52 26429 -269 90000 -63571 131 6 0.00 26 42 120 0.38
07/31/2016 487.21 26170 -259 90000 -63830 124 4 0.00 22 40 110 0.37
08/01/2016 486.90 25912 -258 90000 -64088 126 6 0.00 18 39 105 0.34
08/02/2016 486.54 25615 -- 90000 -- 124 -17 0.00 20 38 98 0.34
08/03/2016 486.18 25320 -295 90000 -64680 123 -16 0.00 21 39 108 0.36
08/04/2016 485.87 25067 -253 90000 -64933 124 6 0.00 20 38 10 0.35
08/05/2016 485.54 24800 -267 90000 -65200 125 -1 0.00 15 34 103 0.31
08/06/2016 485.19 24518 -282 90000 -65482 121 -12 0.00 17 36 103 0.33
08/07/2016 484.99 24358 -160 90000 -65642 114 43 0.00 17 35 112 0.34
08/08/2016 484.69 24120 -238 90000 -65880 114 3 0.00 18 37 111 0.35
08/09/2016 484.39 23882 -238 90000 -66118 110 -1 0.00 17 36 102 0.32
08/10/2016 483.99 23568 -314 90000 -66432 105 -44 0.00 19 36 108 0.33
08/11/2016 483.70 23341 -227 90000 -66659 106 1 0.00 19 37 110 0.34
08/12/2016 483.41 23116 -225 90000 -66884 106 2 0.00 20 38 114 0.35
08/13/2016 483.24 22985 -131 90000 -67015 106 49 0.00 22 40 114 0.36
08/14/2016 482.84 22678 -307 90000 -67322 106 -39 0.00 23 42 111 0.37
08/15/2016 482.55 22457 -221 90000 -67543 106 3 0.00 22 39 99 0.34
08/16/2016 482.34 22297 51431 90000 -67703 106 34 0.00 19 39 109 0.34
08/17/2016 482.09 22109 -188 90000 -67891 105 19 0.00 21 41 95 0.33
08/18/2016 481.81 21899 -210 90000 -68101 105 8 0.00 22 39 112 0.33
08/19/2016 481.52 21682 -217 90000 -68318 105 3 0.00 20 39 87 0.30
08/20/2016 481.22 21460 -222 90000 -68540 105 1 0.00 21 38 107 0.32
08/21/2016 480.92 21238 -222 90000 -68762 104 0 0.00 19 38 107 0.32
08/22/2016 480.63 21026 -212 90000 -68974 103 4 0.00 17 36 96 0.30
08/23/2016 480.33 20808 -218 90000 -69192 103 1 0.00 18 36 107 0.30
08/24/2016 480.03 20591 -217 90000 -69409 103 2 0.00 19 37 112 0.32
08/25/2016 479.73 20375 -216 90000 -69625 103 2 0.00 18 36 105 0.31
08/26/2016 -- -- -- -- -- -- -- -- -- -- -- --

Later | Latest

Warning! This data is preliminary and subject to revision.

Show HID Map | Plot HID Data | 1 Month HID Data | Real-Time HID Data | HID Info